createdAt,value
2018-06-17T00:00:53.629Z,93.10
2018-06-17T00:03:21.918Z,93.00
2018-06-17T00:05:50.241Z,92.90
2018-06-17T00:08:18.541Z,93.40
2018-06-17T00:10:46.833Z,93.20
2018-06-17T00:13:15.157Z,93.00
2018-06-17T00:15:43.459Z,93.30
2018-06-17T00:18:11.778Z,93.10
2018-06-17T00:20:40.078Z,93.10
2018-06-17T00:23:08.402Z,93.00
2018-06-17T00:25:36.692Z,92.90
2018-06-17T00:28:04.245Z,92.80
2018-06-17T00:30:32.546Z,92.70
2018-06-17T00:33:00.870Z,92.80
2018-06-17T00:35:29.167Z,92.60
2018-06-17T00:37:57.480Z,92.70
2018-06-17T00:40:25.786Z,92.90
2018-06-17T00:42:54.101Z,93.00
2018-06-17T00:45:22.403Z,93.10
2018-06-17T00:47:50.733Z,93.30
2018-06-17T00:50:19.028Z,93.30
2018-06-17T00:52:47.346Z,93.20
2018-06-17T00:55:15.641Z,93.20
2018-06-17T00:57:43.952Z,93.00
2018-06-17T01:00:12.254Z,92.80
2018-06-17T01:02:40.578Z,92.90
2018-06-17T01:05:08.886Z,93.20
2018-06-17T01:07:37.207Z,93.40
2018-06-17T01:10:05.507Z,93.50
2018-06-17T01:12:33.068Z,93.50
2018-06-17T01:15:01.389Z,93.20
2018-06-17T01:17:29.710Z,93.20
2018-06-17T01:19:58.027Z,93.10
2018-06-17T01:22:26.359Z,93.30
2018-06-17T01:24:54.655Z,93.40
2018-06-17T01:27:22.981Z,93.30
2018-06-17T01:29:51.283Z,93.70
2018-06-17T01:32:19.598Z,93.20
2018-06-17T01:34:47.898Z,93.30
2018-06-17T01:37:16.218Z,93.20
2018-06-17T01:39:44.514Z,93.00
2018-06-17T01:42:12.838Z,92.90
2018-06-17T01:44:41.146Z,93.10
2018-06-17T01:47:09.474Z,93.30
2018-06-17T01:49:37.777Z,93.30
2018-06-17T01:52:06.101Z,93.50
2018-06-17T01:54:34.398Z,93.50
2018-06-17T01:57:02.719Z,93.40
2018-06-17T01:59:31.015Z,93.30
2018-06-17T02:01:59.337Z,93.20
2018-06-17T02:04:41.759Z,93.10
2018-06-17T02:07:30.806Z,92.80
2018-06-17T02:10:04.718Z,92.50
2018-06-17T02:12:33.043Z,92.60
2018-06-17T02:15:01.339Z,92.60
2018-06-17T02:17:29.653Z,92.80
2018-06-17T02:19:57.960Z,93.20
2018-06-17T02:22:26.279Z,93.30
2018-06-17T02:24:54.874Z,93.40
2018-06-17T02:27:23.188Z,93.30
2018-06-17T02:29:51.490Z,93.40
2018-06-17T02:32:19.811Z,93.40
2018-06-17T02:34:48.103Z,93.20
2018-06-17T02:37:16.418Z,93.10
2018-06-17T02:39:44.710Z,93.10
2018-06-17T02:42:13.006Z,93.20
2018-06-17T02:44:41.328Z,93.00
2018-06-17T02:47:30.430Z,93.20
2018-06-17T02:49:58.724Z,93.00
2018-06-17T02:52:41.922Z,92.90
2018-06-17T02:55:10.230Z,93.00
2018-06-17T02:57:38.551Z,93.00
2018-06-17T03:00:06.853Z,93.20
2018-06-17T03:02:35.171Z,93.20
2018-06-17T03:05:03.474Z,93.10
2018-06-17T03:07:31.814Z,93.00
2018-06-17T03:10:00.106Z,93.00
2018-06-17T03:12:28.394Z,93.00
2018-06-17T03:14:56.722Z,93.40
2018-06-17T03:17:25.023Z,92.80
2018-06-17T03:19:53.342Z,92.90
2018-06-17T03:22:21.638Z,93.00
2018-06-17T03:24:49.985Z,92.90
2018-06-17T03:27:38.174Z,92.80
2018-06-17T03:30:21.386Z,92.90
2018-06-17T03:33:04.586Z,93.00
2018-06-17T03:35:32.880Z,92.70
2018-06-17T03:38:01.211Z,92.70
2018-06-17T03:40:29.522Z,92.60
2018-06-17T03:42:57.843Z,92.40
2018-06-17T03:45:26.142Z,92.30
2018-06-17T03:47:54.443Z,92.10
2018-06-17T03:50:22.762Z,91.90
2018-06-17T03:52:51.058Z,91.90
2018-06-17T03:55:19.383Z,91.80
2018-06-17T03:57:47.682Z,91.60
2018-06-17T04:00:16.007Z,91.40
2018-06-17T04:02:44.306Z,91.30
2018-06-17T04:05:12.626Z,90.50
2018-06-17T04:07:40.934Z,88.60
2018-06-17T04:10:09.259Z,87.70
2018-06-17T04:12:37.558Z,87.40
2018-06-17T04:15:05.870Z,87.60
2018-06-17T04:17:34.163Z,87.50
2018-06-17T04:20:02.478Z,87.30
2018-06-17T04:22:30.778Z,87.20
2018-06-17T04:24:59.090Z,87.00
2018-06-17T04:27:27.378Z,87.00
2018-06-17T04:29:55.690Z,87.00
2018-06-17T04:32:23.985Z,86.90
2018-06-17T04:34:52.308Z,86.80
2018-06-17T04:37:20.593Z,86.30
2018-06-17T04:39:48.910Z,86.20
2018-06-17T04:42:17.215Z,86.10
2018-06-17T04:44:45.517Z,86.20
2018-06-17T04:47:13.815Z,87.20
2018-06-17T04:49:42.133Z,86.40
2018-06-17T04:52:10.427Z,86.30
2018-06-17T04:54:38.746Z,85.60
2018-06-17T04:57:07.039Z,85.10
2018-06-17T04:59:35.354Z,84.60
2018-06-17T05:02:03.650Z,84.10
2018-06-17T05:04:31.964Z,83.70
2018-06-17T05:07:00.258Z,82.90
2018-06-17T05:09:28.570Z,82.30
2018-06-17T05:11:56.887Z,82.00
2018-06-17T05:14:25.207Z,82.10
2018-06-17T05:16:53.499Z,82.10
2018-06-17T05:19:21.825Z,82.10
2018-06-17T05:21:50.114Z,82.10
2018-06-17T05:24:18.422Z,82.60
2018-06-17T05:26:47.053Z,83.20
2018-06-17T05:29:15.371Z,83.20
2018-06-17T05:31:43.691Z,82.80
2018-06-17T05:34:12.015Z,82.20
2018-06-17T05:36:40.310Z,81.60
2018-06-17T05:39:08.622Z,81.50
2018-06-17T05:41:36.917Z,81.20
2018-06-17T05:44:05.234Z,80.70
2018-06-17T05:46:33.526Z,79.90
2018-06-17T05:49:01.814Z,79.40
2018-06-17T05:51:30.131Z,78.60
2018-06-17T05:53:58.418Z,77.40
2018-06-17T05:56:26.730Z,76.60
2018-06-17T05:58:55.022Z,76.20
2018-06-17T06:01:23.334Z,75.80
2018-06-17T06:03:51.628Z,75.30
2018-06-17T06:06:19.939Z,73.70
2018-06-17T06:08:48.239Z,73.60
2018-06-17T06:11:16.574Z,73.30
2018-06-17T06:13:44.866Z,72.20
2018-06-17T06:16:13.178Z,71.60
2018-06-17T06:18:41.468Z,71.10
2018-06-17T06:21:09.774Z,71.10
2018-06-17T06:23:38.078Z,70.60
2018-06-17T06:26:06.404Z,69.40
2018-06-17T06:28:34.695Z,68.20
2018-06-17T06:31:03.075Z,67.10
2018-06-17T06:33:31.324Z,66.50
2018-06-17T06:35:59.632Z,65.90
2018-06-17T06:38:27.952Z,65.00
2018-06-17T06:40:56.270Z,64.00
2018-06-17T06:43:24.570Z,62.90
2018-06-17T06:45:52.887Z,61.90
2018-06-17T06:48:21.178Z,60.90
2018-06-17T06:50:49.501Z,60.50
2018-06-17T06:53:17.796Z,60.20
2018-06-17T06:55:46.110Z,59.70
2018-06-17T06:58:14.398Z,59.20
2018-06-17T07:00:42.714Z,58.70
2018-06-17T07:03:22.755Z,58.20
2018-06-17T07:06:02.997Z,57.50
2018-06-17T07:08:57.978Z,57.70
2018-06-17T07:11:26.302Z,57.30
2018-06-17T07:13:54.601Z,56.80
2018-06-17T07:19:33.695Z,56.90
2018-06-17T07:22:02.006Z,57.20
2018-06-17T07:24:29.526Z,57.20
2018-06-17T07:27:08.889Z,57.30
2018-06-17T07:29:39.218Z,56.60
2018-06-17T07:32:07.547Z,56.50
2018-06-17T07:34:35.074Z,56.40
2018-06-17T07:37:02.615Z,56.20
2018-06-17T07:39:30.146Z,55.60
2018-06-17T07:41:58.455Z,55.50
2018-06-17T07:44:26.790Z,55.70
2018-06-17T07:46:54.342Z,55.70
2018-06-17T07:49:33.662Z,55.70
2018-06-17T07:55:15.555Z,55.50
2018-06-17T07:57:43.870Z,54.50
2018-06-17T08:00:12.174Z,53.90
2018-06-17T08:02:39.735Z,53.90
2018-06-17T08:05:07.259Z,54.60
2018-06-17T08:07:34.814Z,55.00
2018-06-17T08:10:03.098Z,55.20
2018-06-17T08:12:31.402Z,54.50
2018-06-17T08:14:58.918Z,54.40
2018-06-17T08:17:26.454Z,53.90
2018-06-17T08:19:53.981Z,53.30
2018-06-17T08:22:22.286Z,52.60
2018-06-17T08:24:49.808Z,52.60
2018-06-17T08:27:17.346Z,52.10
2018-06-17T08:29:45.635Z,52.70
2018-06-17T08:32:13.941Z,52.80
2018-06-17T08:34:41.466Z,52.80
2018-06-17T08:37:09.019Z,51.90
2018-06-17T08:39:36.538Z,51.70
2018-06-17T08:42:04.847Z,51.20
2018-06-17T08:44:33.138Z,51.50
2018-06-17T08:47:00.678Z,51.50
2018-06-17T08:49:28.206Z,51.90
2018-06-17T08:51:56.515Z,51.40
2018-06-17T08:54:24.040Z,51.40
2018-06-17T08:56:51.582Z,51.20
2018-06-17T08:59:19.101Z,50.50
2018-06-17T09:01:47.408Z,50.10
2018-06-17T09:04:15.698Z,49.30
2018-06-17T09:06:43.246Z,49.30
2018-06-17T09:09:10.758Z,49.30
2018-06-17T09:11:39.066Z,49.70
2018-06-17T09:14:07.353Z,50.10
2018-06-17T09:16:34.912Z,50.10
2018-06-17T09:19:03.201Z,50.00
2018-06-17T09:21:31.517Z,49.90
2018-06-17T09:23:59.032Z,49.90
2018-06-17T09:26:26.584Z,50.10
2018-06-17T09:28:54.115Z,49.40
2018-06-17T09:31:22.422Z,50.10
2018-06-17T09:33:49.943Z,50.10
2018-06-17T09:36:18.304Z,48.40
2018-06-17T09:38:46.562Z,49.30
2018-06-17T09:41:14.863Z,49.80
2018-06-17T09:43:43.167Z,49.20
2018-06-17T09:46:10.686Z,49.20
2018-06-17T09:48:38.990Z,47.30
2018-06-17T09:51:07.281Z,48.10
2018-06-17T09:53:34.822Z,48.10
2018-06-17T09:56:02.352Z,47.30
2018-06-17T09:58:29.984Z,47.20
2018-06-17T10:00:58.214Z,47.20
2018-06-17T10:03:26.526Z,47.40
2018-06-17T10:05:54.282Z,47.60
2018-06-17T10:08:21.838Z,47.50
2018-06-17T10:10:50.126Z,47.10
2018-06-17T10:13:17.670Z,47.10
2018-06-17T10:15:45.975Z,46.90
2018-06-17T10:18:13.517Z,46.90
2018-06-17T10:20:41.805Z,46.80
2018-06-17T10:23:09.347Z,46.70
2018-06-17T10:25:36.863Z,45.90
2018-06-17T10:28:05.175Z,45.20
2018-06-17T10:30:33.470Z,45.40
2018-06-17T10:33:01.015Z,45.30
2018-06-17T10:35:28.575Z,44.10
2018-06-17T10:37:56.118Z,44.40
2018-06-17T10:40:24.410Z,46.90
2018-06-17T10:42:51.954Z,46.80
2018-06-17T10:45:19.474Z,47.10
2018-06-17T10:47:47.019Z,46.50
2018-06-17T10:50:15.311Z,46.80
2018-06-17T10:52:42.867Z,46.70
2018-06-17T10:55:10.392Z,46.80
2018-06-17T10:57:37.939Z,47.40
2018-06-17T11:00:06.237Z,47.20
2018-06-17T11:02:34.547Z,47.00
2018-06-17T11:05:02.857Z,46.80
2018-06-17T11:07:30.414Z,46.90
2018-06-17T11:09:58.713Z,47.20
2018-06-17T11:12:26.263Z,47.20
2018-06-17T11:14:53.799Z,47.10
2018-06-17T11:17:21.357Z,45.40
2018-06-17T11:19:48.882Z,45.10
2018-06-17T11:22:17.199Z,45.50
2018-06-17T11:24:44.727Z,45.60
2018-06-17T11:27:12.259Z,46.10
2018-06-17T11:29:39.806Z,46.10
2018-06-17T11:32:08.091Z,45.10
2018-06-17T11:34:35.634Z,45.10
2018-06-17T11:37:03.155Z,46.00
2018-06-17T11:39:30.694Z,46.70
2018-06-17T11:41:58.980Z,47.40
2018-06-17T11:44:26.534Z,47.30
2018-06-17T11:46:54.065Z,47.60
2018-06-17T11:49:21.605Z,47.60
2018-06-17T11:51:49.894Z,47.10
2018-06-17T11:54:17.437Z,47.10
2018-06-17T11:56:44.966Z,46.30
2018-06-17T11:59:12.516Z,46.10
2018-06-17T12:01:40.806Z,46.50
2018-06-17T12:04:08.355Z,46.50
2018-06-17T12:06:36.638Z,47.00
2018-06-17T12:09:04.183Z,47.00
2018-06-17T12:11:32.482Z,47.20
2018-06-17T12:14:00.798Z,47.50
2018-06-17T12:16:28.318Z,47.50
2018-06-17T12:18:55.862Z,47.80
2018-06-17T12:21:24.150Z,47.00
2018-06-17T12:23:51.694Z,47.00
2018-06-17T12:26:19.226Z,47.60
2018-06-17T12:28:46.773Z,47.70
2018-06-17T12:31:15.060Z,47.90
2018-06-17T12:33:42.609Z,47.90
2018-06-17T12:36:10.127Z,48.30
2018-06-17T12:38:37.678Z,48.50
2018-06-17T12:41:05.963Z,48.60
2018-06-17T12:43:33.506Z,48.60
2018-06-17T12:46:01.018Z,48.80
2018-06-17T12:48:29.330Z,49.80
2018-06-17T12:50:57.626Z,50.30
2018-06-17T12:53:25.162Z,50.30
2018-06-17T12:55:52.687Z,50.30
2018-06-17T12:58:20.238Z,50.20
2018-06-17T13:00:48.522Z,50.80
2018-06-17T13:03:16.066Z,50.80
2018-06-17T13:05:43.595Z,50.60
2018-06-17T13:08:11.122Z,50.20
2018-06-17T13:10:39.441Z,49.80
2018-06-17T13:13:06.963Z,49.80
2018-06-17T13:15:34.506Z,49.60
2018-06-17T13:18:02.029Z,49.50
2018-06-17T13:20:30.343Z,48.90
2018-06-17T13:22:57.866Z,48.90
2018-06-17T13:25:25.406Z,47.60
2018-06-17T13:27:52.934Z,47.20
2018-06-17T13:30:21.247Z,47.90
2018-06-17T13:32:49.538Z,48.90
2018-06-17T13:35:17.095Z,48.30
2018-06-17T13:37:44.616Z,48.90
2018-06-17T13:40:12.918Z,49.50
2018-06-17T13:42:40.444Z,49.40
2018-06-17T13:45:07.990Z,49.60
2018-06-17T13:47:35.523Z,49.60
2018-06-17T13:50:03.831Z,49.30
2018-06-17T13:52:32.117Z,49.70
2018-06-17T13:54:59.669Z,49.70
2018-06-17T13:57:27.953Z,49.70
2018-06-17T13:59:56.263Z,49.70
2018-06-17T14:02:24.587Z,50.40
2018-06-17T14:04:52.902Z,50.30
2018-06-17T14:07:20.435Z,50.30
2018-06-17T14:09:47.978Z,49.80
2018-06-17T14:12:16.266Z,50.30
2018-06-17T14:14:43.809Z,50.30
2018-06-17T14:17:11.335Z,50.50
2018-06-17T14:19:39.658Z,51.10
2018-06-17T14:22:07.946Z,50.50
2018-06-17T14:24:35.492Z,50.50
2018-06-17T14:27:03.025Z,50.30
2018-06-17T14:29:30.573Z,50.60
2018-06-17T14:31:58.857Z,51.70
2018-06-17T14:34:26.406Z,51.70
2018-06-17T14:36:53.997Z,51.30
2018-06-17T14:39:21.532Z,52.00
2018-06-17T14:41:49.826Z,52.60
2018-06-17T14:44:33.154Z,52.50
2018-06-17T14:47:21.352Z,52.00
2018-06-17T14:50:03.829Z,51.20
2018-06-17T14:52:32.079Z,51.70
2018-06-17T14:54:59.623Z,51.70
2018-06-17T14:57:27.171Z,51.40
2018-06-17T14:59:54.707Z,50.60
2018-06-17T15:02:22.994Z,50.40
2018-06-17T15:04:50.538Z,50.40
2018-06-17T15:07:18.859Z,48.90
2018-06-17T15:09:46.389Z,48.90
2018-06-17T15:12:14.705Z,49.80
2018-06-17T15:14:42.255Z,49.90
2018-06-17T15:17:09.778Z,50.30
2018-06-17T15:19:37.335Z,49.80
2018-06-17T15:22:05.656Z,50.30
2018-06-17T15:24:33.204Z,50.30
2018-06-17T15:27:00.727Z,50.30
2018-06-17T15:29:29.034Z,50.00
2018-06-17T15:31:57.353Z,50.60
2018-06-17T15:34:42.703Z,50.50
2018-06-17T15:37:26.663Z,50.90
2018-06-17T15:39:54.208Z,50.90
2018-06-17T15:42:22.489Z,50.40
2018-06-17T15:44:50.053Z,50.30
2018-06-17T15:47:18.346Z,49.40
2018-06-17T15:49:45.871Z,49.40
2018-06-17T15:52:14.182Z,49.90
2018-06-17T15:54:41.707Z,49.90
2018-06-17T15:57:09.280Z,49.50
2018-06-17T15:59:36.807Z,48.90
2018-06-17T16:02:05.113Z,48.90
2018-06-17T16:04:32.633Z,48.90
2018-06-17T16:07:00.178Z,49.10
2018-06-17T16:09:27.705Z,49.30
2018-06-17T16:11:56.026Z,48.40
2018-06-17T16:14:40.346Z,48.40
2018-06-17T16:17:22.775Z,48.10
2018-06-17T16:20:05.178Z,48.50
2018-06-17T16:22:33.543Z,48.40
2018-06-17T16:25:01.051Z,48.30
2018-06-17T16:27:28.607Z,47.80
2018-06-17T16:29:56.126Z,47.90
2018-06-17T16:32:24.422Z,48.70
2018-06-17T16:34:51.978Z,48.70
2018-06-17T16:37:19.522Z,49.20
2018-06-17T16:39:47.042Z,48.40
2018-06-17T16:42:15.346Z,48.20
2018-06-17T16:44:42.871Z,48.20
2018-06-17T16:47:10.427Z,48.00
2018-06-17T16:49:37.946Z,47.50
2018-06-17T16:52:22.043Z,46.50
2018-06-17T16:55:05.239Z,46.50
2018-06-17T16:57:38.334Z,45.70
2018-06-17T17:00:06.614Z,45.10
2018-06-17T17:02:34.167Z,45.10
2018-06-17T17:05:01.699Z,45.40
2018-06-17T17:07:29.243Z,43.60
2018-06-17T17:09:58.132Z,42.30
2018-06-17T17:12:26.420Z,42.70
2018-06-17T17:14:53.943Z,42.40
2018-06-17T17:17:21.495Z,43.10
2018-06-17T17:19:49.779Z,43.30
2018-06-17T17:22:18.083Z,44.10
2018-06-17T17:24:45.607Z,44.00
2018-06-17T17:27:13.146Z,44.60
2018-06-17T17:29:40.678Z,44.60
2018-06-17T17:32:08.984Z,42.70
2018-06-17T17:34:54.934Z,41.90
2018-06-17T17:37:37.364Z,41.90
2018-06-17T17:40:21.340Z,43.00
2018-06-17T17:42:49.655Z,44.50
2018-06-17T17:45:17.952Z,44.50
2018-06-17T17:47:45.509Z,44.50
2018-06-17T17:50:13.794Z,45.60
2018-06-17T17:52:41.342Z,45.60
2018-06-17T17:55:09.632Z,46.40
2018-06-17T17:57:38.057Z,46.40
2018-06-17T18:00:06.395Z,46.80
2018-06-17T18:02:34.711Z,47.30
2018-06-17T18:05:02.238Z,47.30
2018-06-17T18:07:29.793Z,47.20
2018-06-17T18:09:57.829Z,47.20
2018-06-17T18:12:26.139Z,47.00
2018-06-17T18:14:53.678Z,47.00
2018-06-17T18:17:21.224Z,47.20
2018-06-17T18:19:48.747Z,47.00
2018-06-17T18:22:17.058Z,47.30
2018-06-17T18:24:44.595Z,47.30
2018-06-17T18:27:27.835Z,47.30
2018-06-17T18:30:16.084Z,47.20
2018-06-17T18:32:59.275Z,42.10
2018-06-17T18:35:41.676Z,42.10
2018-06-17T18:38:09.227Z,39.90
2018-06-17T18:40:37.518Z,42.60
2018-06-17T18:43:05.893Z,43.60
2018-06-17T18:45:34.142Z,44.90
2018-06-17T18:48:02.463Z,46.00
2018-06-17T18:50:30.747Z,46.80
2018-06-17T18:52:58.290Z,46.80
2018-06-17T18:55:25.812Z,47.70
2018-06-17T18:57:53.361Z,48.50
2018-06-17T19:00:21.679Z,50.50
2018-06-17T19:02:49.996Z,51.10
2018-06-17T19:05:17.519Z,51.10
2018-06-17T19:07:45.068Z,51.20
2018-06-17T19:10:19.026Z,52.40
2018-06-17T19:13:01.456Z,52.40
2018-06-17T19:15:47.387Z,53.60
2018-06-17T19:18:15.698Z,54.50
2018-06-17T19:20:43.991Z,55.30
2018-06-17T19:23:11.538Z,55.30
2018-06-17T19:25:39.068Z,56.30
2018-06-17T19:28:06.608Z,56.80
2018-06-17T19:30:34.898Z,57.50
2018-06-17T19:33:02.445Z,57.50
2018-06-17T19:35:29.967Z,57.80
2018-06-17T19:37:57.559Z,58.20
2018-06-17T19:40:25.822Z,59.00
2018-06-17T19:42:53.366Z,59.10
2018-06-17T19:45:20.891Z,59.30
2018-06-17T19:47:48.446Z,59.70
2018-06-17T19:50:16.743Z,60.20
2018-06-17T19:53:03.087Z,60.20
2018-06-17T19:55:46.407Z,60.60
2018-06-17T19:58:30.738Z,61.00
2018-06-17T20:00:59.030Z,61.80
2018-06-17T20:03:27.353Z,62.80
2018-06-17T20:05:54.927Z,62.80
2018-06-17T20:08:23.205Z,63.80
2018-06-17T20:10:51.495Z,64.10
2018-06-17T20:13:19.033Z,64.10
2018-06-17T20:15:47.321Z,64.70
2018-06-17T20:18:14.902Z,64.70
2018-06-17T20:20:43.191Z,65.10
2018-06-17T20:23:11.504Z,66.10
2018-06-17T20:25:39.796Z,67.00
2018-06-17T20:28:07.341Z,67.00
2018-06-17T20:30:35.626Z,68.20
2018-06-17T20:33:23.978Z,68.20
2018-06-17T20:36:07.939Z,68.30
2018-06-17T20:38:51.907Z,68.60
2018-06-17T20:41:35.070Z,68.90
2018-06-17T20:44:02.631Z,68.90
2018-06-17T20:46:30.925Z,68.80
2018-06-17T20:48:58.466Z,68.80
2018-06-17T20:51:26.760Z,68.80
2018-06-17T20:53:55.075Z,68.80
2018-06-17T20:56:22.595Z,68.80
2018-06-17T20:58:50.152Z,69.20
2018-06-17T21:01:18.439Z,69.40
2018-06-17T21:03:46.746Z,69.60
2018-06-17T21:06:15.034Z,69.50
2018-06-17T21:08:42.586Z,69.50
2018-06-17T21:11:10.898Z,70.90
2018-06-17T21:13:39.210Z,70.60
2018-06-17T21:16:07.502Z,71.00
2018-06-17T21:18:35.050Z,71.00
2018-06-17T21:21:18.222Z,71.20
2018-06-17T21:24:00.639Z,71.20
2018-06-17T21:26:43.815Z,71.70
2018-06-17T21:29:12.122Z,72.40
2018-06-17T21:31:40.417Z,72.70
2018-06-17T21:34:07.963Z,72.70
2018-06-17T21:36:36.255Z,73.20
2018-06-17T21:39:04.562Z,73.30
2018-06-17T21:41:32.855Z,73.70
2018-06-17T21:44:01.192Z,74.40
2018-06-17T21:46:28.727Z,74.40
2018-06-17T21:48:57.038Z,75.00
2018-06-17T21:51:25.330Z,74.60
2018-06-17T21:53:52.877Z,74.60
2018-06-17T21:56:20.394Z,74.60
2018-06-17T21:58:47.942Z,75.50
2018-06-17T22:01:16.227Z,76.90
2018-06-17T22:03:43.773Z,76.90
2018-06-17T22:06:11.306Z,77.30
2018-06-17T22:08:39.614Z,78.10
2018-06-17T22:11:25.706Z,78.50
2018-06-17T22:13:53.250Z,79.40
2018-06-17T22:16:36.446Z,78.50
2018-06-17T22:19:04.051Z,78.70
2018-06-17T22:21:32.342Z,78.60
2018-06-17T22:24:00.650Z,78.70
2018-06-17T22:26:28.950Z,78.40
2018-06-17T22:28:57.263Z,78.30
2018-06-17T22:31:25.558Z,78.50
2018-06-17T22:33:53.095Z,78.50
2018-06-17T22:36:20.632Z,78.80
2018-06-17T22:38:48.946Z,80.00
2018-06-17T22:41:17.241Z,80.20
2018-06-17T22:43:45.530Z,81.30
2018-06-17T22:46:13.839Z,80.70
2018-06-17T22:48:42.126Z,81.10
2018-06-17T22:51:10.432Z,81.60
2018-06-17T22:54:01.166Z,82.20
2018-06-17T22:56:28.685Z,83.10
2018-06-17T22:59:02.679Z,83.00
2018-06-17T23:01:36.522Z,83.00
2018-06-17T23:04:19.708Z,82.80
2018-06-17T23:06:52.807Z,82.60
2018-06-17T23:09:34.866Z,82.80
2018-06-17T23:12:03.147Z,82.60
2018-06-17T23:14:30.691Z,82.60
2018-06-17T23:16:58.987Z,83.00
2018-06-17T23:19:27.309Z,83.70
2018-06-17T23:21:55.595Z,83.40
2018-06-17T23:24:23.906Z,83.00
2018-06-17T23:26:51.437Z,83.00
2018-06-17T23:29:19.756Z,82.60
2018-06-17T23:31:48.052Z,82.60
2018-06-17T23:34:15.621Z,82.40
2018-06-17T23:36:43.150Z,82.60
2018-06-17T23:39:11.448Z,82.90
2018-06-17T23:41:39.784Z,82.70
2018-06-17T23:44:08.091Z,82.90
2018-06-17T23:46:36.400Z,82.90
2018-06-17T23:49:19.618Z,82.90
2018-06-17T23:52:03.605Z,82.70
2018-06-17T23:54:46.799Z,82.80
2018-06-17T23:57:15.092Z,82.80
2018-06-17T23:59:43.410Z,82.90
